Ellsworth, Minnesota
Current Conditions -  °F | °C
As of 10:34 AM on Friday 19 Dec 2014 (Local Time) from KLYV Reporting Station
Haze Haze  
Wind Chill: 22°   Ceiling: 800
Heat Index: 32°   Visibility: 4mi
Dew Point: 28°   Wind: 14mph
Humidity: 87%   Direction: 190°S
Pressure: 30.16"   Gusts: NA
Location:  43.52°N, 96.02°W
Report Text: KLYV 191634Z AUTO 19012KT 4SM BR OVC008 00/M02 A3016 RMK AO2
Loading
Personal Weather Stations






























Interactive Weather Map New forecast layout! Learn more

10-Day Weather Forecast

Advertisements
Track Severe Weather on mobile